sensor_id;sensor_type;location;lat;lon;timestamp;pressure;altitude;pressure_sealevel;temperature;humidity
39177;BME280;24904;52.208;21.192;2023-02-14T00:03:10;102012.34;;;5.15;72.62
39177;BME280;24904;52.208;21.192;2023-02-14T00:08:16;102014.29;;;5.15;72.63
39177;BME280;24904;52.208;21.192;2023-02-14T00:16:33;102019.73;;;5.18;72.63
39177;BME280;24904;52.208;21.192;2023-02-14T00:21:36;102029.34;;;5.14;72.76
39177;BME280;24904;52.208;21.192;2023-02-14T00:26:40;102030.63;;;5.09;72.81
39177;BME280;24904;52.208;21.192;2023-02-14T00:31:43;102038.34;;;5.06;72.99
39177;BME280;24904;52.208;21.192;2023-02-14T00:36:47;102040.38;;;5.08;72.87
39177;BME280;24904;52.208;21.192;2023-02-14T00:41:52;102039.79;;;5.08;73.05
39177;BME280;24904;52.208;21.192;2023-02-14T00:46:55;102041.23;;;5.06;73.07
39177;BME280;24904;52.208;21.192;2023-02-14T00:51:58;102034.52;;;5.00;73.18
39177;BME280;24904;52.208;21.192;2023-02-14T00:57:01;102038.69;;;4.98;73.14
39177;BME280;24904;52.208;21.192;2023-02-14T01:02:05;102042.30;;;4.97;73.47
39177;BME280;24904;52.208;21.192;2023-02-14T01:07:08;102042.89;;;4.95;73.45
39177;BME280;24904;52.208;21.192;2023-02-14T01:12:11;102040.09;;;4.92;73.67
39177;BME280;24904;52.208;21.192;2023-02-14T01:17:17;102039.40;;;4.96;73.70
39177;BME280;24904;52.208;21.192;2023-02-14T01:22:23;102034.79;;;4.90;73.85
39177;BME280;24904;52.208;21.192;2023-02-14T01:27:27;102038.98;;;4.87;73.82
39177;BME280;24904;52.208;21.192;2023-02-14T01:32:31;102033.13;;;4.83;74.21
39177;BME280;24904;52.208;21.192;2023-02-14T01:37:34;102035.79;;;4.80;74.04
39177;BME280;24904;52.208;21.192;2023-02-14T01:42:38;102047.86;;;4.83;74.23
39177;BME280;24904;52.208;21.192;2023-02-14T01:47:43;102053.86;;;4.82;74.54
39177;BME280;24904;52.208;21.192;2023-02-14T01:52:51;102055.94;;;4.78;74.57
39177;BME280;24904;52.208;21.192;2023-02-14T01:58:00;102045.55;;;4.76;74.71
39177;BME280;24904;52.208;21.192;2023-02-14T02:11:18;102045.42;;;4.75;74.88
39177;BME280;24904;52.208;21.192;2023-02-14T02:16:37;102048.07;;;4.65;74.86
39177;BME280;24904;52.208;21.192;2023-02-14T02:22:08;102048.98;;;4.63;75.23
39177;BME280;24904;52.208;21.192;2023-02-14T02:38:39;102052.27;;;4.57;75.93
39177;BME280;24904;52.208;21.192;2023-02-14T02:43:54;102054.09;;;4.59;75.54
39177;BME280;24904;52.208;21.192;2023-02-14T02:49:13;102057.23;;;4.53;75.65
39177;BME280;24904;52.208;21.192;2023-02-14T02:54:46;102060.84;;;4.47;76.24
39177;BME280;24904;52.208;21.192;2023-02-14T02:59:54;102069.45;;;4.42;76.20
39177;BME280;24904;52.208;21.192;2023-02-14T03:05:05;102066.35;;;4.42;75.95
39177;BME280;24904;52.208;21.192;2023-02-14T03:10:13;102072.14;;;4.37;75.97
39177;BME280;24904;52.208;21.192;2023-02-14T03:15:24;102078.36;;;4.35;76.38
39177;BME280;24904;52.208;21.192;2023-02-14T03:20:37;102084.27;;;4.28;76.25
39177;BME280;24904;52.208;21.192;2023-02-14T03:25:50;102075.11;;;4.25;76.56
39177;BME280;24904;52.208;21.192;2023-02-14T03:31:03;102077.95;;;4.19;76.62
39177;BME280;24904;52.208;21.192;2023-02-14T03:36:14;102082.94;;;4.13;76.89
39177;BME280;24904;52.208;21.192;2023-02-14T03:41:23;102092.55;;;4.03;76.73
39177;BME280;24904;52.208;21.192;2023-02-14T03:54:48;102088.20;;;3.94;77.02
39177;BME280;24904;52.208;21.192;2023-02-14T03:59:55;102092.69;;;3.92;76.81
39177;BME280;24904;52.208;21.192;2023-02-14T04:05:04;102089.88;;;3.89;77.29
39177;BME280;24904;52.208;21.192;2023-02-14T04:10:12;102090.73;;;3.81;77.42
39177;BME280;24904;52.208;21.192;2023-02-14T04:15:18;102086.48;;;3.83;77.29
39177;BME280;24904;52.208;21.192;2023-02-14T04:20:23;102086.91;;;3.84;77.22
39177;BME280;24904;52.208;21.192;2023-02-14T04:25:28;102094.62;;;3.88;77.47
39177;BME280;24904;52.208;21.192;2023-02-14T04:30:33;102095.27;;;3.88;77.43
39177;BME280;24904;52.208;21.192;2023-02-14T04:35:38;102104.77;;;3.85;77.18
39177;BME280;24904;52.208;21.192;2023-02-14T04:40:43;102104.42;;;3.81;77.63
39177;BME280;24904;52.208;21.192;2023-02-14T04:45:48;102107.08;;;3.83;77.75
39177;BME280;24904;52.208;21.192;2023-02-14T04:50:54;102109.67;;;3.83;77.83
39177;BME280;24904;52.208;21.192;2023-02-14T04:55:59;102119.09;;;3.87;77.91
39177;BME280;24904;52.208;21.192;2023-02-14T05:01:04;102122.06;;;3.78;77.88
39177;BME280;24904;52.208;21.192;2023-02-14T05:06:09;102125.04;;;3.74;77.91
39177;BME280;24904;52.208;21.192;2023-02-14T05:11:15;102125.02;;;3.71;78.21
39177;BME280;24904;52.208;21.192;2023-02-14T05:16:20;102123.58;;;3.68;78.11
39177;BME280;24904;52.208;21.192;2023-02-14T05:21:25;102130.27;;;3.68;78.37
39177;BME280;24904;52.208;21.192;2023-02-14T05:26:31;102135.86;;;3.68;78.57
39177;BME280;24904;52.208;21.192;2023-02-14T05:31:36;102142.58;;;3.63;78.71
39177;BME280;24904;52.208;21.192;2023-02-14T05:36:41;102141.34;;;3.62;79.03
39177;BME280;24904;52.208;21.192;2023-02-14T05:41:46;102142.11;;;3.60;78.97
39177;BME280;24904;52.208;21.192;2023-02-14T05:46:51;102142.80;;;3.62;79.05
39177;BME280;24904;52.208;21.192;2023-02-14T05:51:57;102138.52;;;3.61;79.07
39177;BME280;24904;52.208;21.192;2023-02-14T05:57:02;102141.92;;;3.57;79.13
39177;BME280;24904;52.208;21.192;2023-02-14T06:02:07;102147.52;;;3.58;79.39
39177;BME280;24904;52.208;21.192;2023-02-14T06:07:12;102148.63;;;3.60;79.33
39177;BME280;24904;52.208;21.192;2023-02-14T06:12:18;102154.05;;;3.62;79.35
39177;BME280;24904;52.208;21.192;2023-02-14T06:17:23;102160.86;;;3.66;79.34
39177;BME280;24904;52.208;21.192;2023-02-14T06:22:28;102169.81;;;3.61;79.30
39177;BME280;24904;52.208;21.192;2023-02-14T06:27:34;102173.09;;;3.64;79.39
39177;BME280;24904;52.208;21.192;2023-02-14T06:32:39;102175.89;;;3.62;79.38
39177;BME280;24904;52.208;21.192;2023-02-14T06:37:44;102169.17;;;3.65;79.30
39177;BME280;24904;52.208;21.192;2023-02-14T06:42:49;102167.98;;;3.60;79.11
39177;BME280;24904;52.208;21.192;2023-02-14T06:47:54;102166.88;;;3.55;79.54
39177;BME280;24904;52.208;21.192;2023-02-14T06:52:59;102165.95;;;3.56;79.75
39177;BME280;24904;52.208;21.192;2023-02-14T06:58:04;102167.12;;;3.52;79.82
39177;BME280;24904;52.208;21.192;2023-02-14T07:03:10;102172.95;;;3.49;79.68
39177;BME280;24904;52.208;21.192;2023-02-14T07:08:15;102174.23;;;3.54;79.67
39177;BME280;24904;52.208;21.192;2023-02-14T07:13:20;102173.22;;;3.63;79.67
39177;BME280;24904;52.208;21.192;2023-02-14T07:18:25;102180.73;;;3.69;79.70
39177;BME280;24904;52.208;21.192;2023-02-14T07:23:30;102184.52;;;3.71;79.66
39177;BME280;24904;52.208;21.192;2023-02-14T07:28:35;102193.35;;;3.77;79.59
39177;BME280;24904;52.208;21.192;2023-02-14T07:33:40;102197.73;;;3.82;79.33
39177;BME280;24904;52.208;21.192;2023-02-14T07:38:45;102207.04;;;3.86;79.18
39177;BME280;24904;52.208;21.192;2023-02-14T07:43:50;102214.26;;;3.87;79.33
39177;BME280;24904;52.208;21.192;2023-02-14T07:48:55;102215.60;;;3.87;78.97
39177;BME280;24904;52.208;21.192;2023-02-14T07:54:00;102219.13;;;3.89;79.24
39177;BME280;24904;52.208;21.192;2023-02-14T07:59:06;102227.73;;;3.86;78.95
39177;BME280;24904;52.208;21.192;2023-02-14T08:12:22;102243.36;;;3.96;79.10
39177;BME280;24904;52.208;21.192;2023-02-14T08:17:45;102246.96;;;3.94;79.20
39177;BME280;24904;52.208;21.192;2023-02-14T08:22:50;102251.42;;;4.00;79.21
39177;BME280;24904;52.208;21.192;2023-02-14T08:27:55;102238.29;;;3.92;79.12
39177;BME280;24904;52.208;21.192;2023-02-14T08:33:00;102241.88;;;3.90;79.34
39177;BME280;24904;52.208;21.192;2023-02-14T08:38:06;102246.04;;;3.92;79.17
39177;BME280;24904;52.208;21.192;2023-02-14T08:43:11;102249.14;;;3.95;79.15
39177;BME280;24904;52.208;21.192;2023-02-14T08:48:17;102254.49;;;3.97;79.13
39177;BME280;24904;52.208;21.192;2023-02-14T08:53:22;102258.13;;;3.91;79.29
39177;BME280;24904;52.208;21.192;2023-02-14T08:58:27;102258.19;;;3.97;79.33
39177;BME280;24904;52.208;21.192;2023-02-14T09:03:32;102260.01;;;3.96;79.36
39177;BME280;24904;52.208;21.192;2023-02-14T09:08:38;102257.35;;;3.94;79.27
39177;BME280;24904;52.208;21.192;2023-02-14T09:13:43;102257.40;;;3.94;79.52
39177;BME280;24904;52.208;21.192;2023-02-14T09:18:50;102252.42;;;3.91;79.68
39177;BME280;24904;52.208;21.192;2023-02-14T09:23:55;102256.81;;;3.93;79.67
39177;BME280;24904;52.208;21.192;2023-02-14T09:29:00;102262.84;;;3.96;79.41
39177;BME280;24904;52.208;21.192;2023-02-14T09:34:06;102266.08;;;4.02;79.25
39177;BME280;24904;52.208;21.192;2023-02-14T09:39:11;102267.20;;;4.04;79.22
39177;BME280;24904;52.208;21.192;2023-02-14T09:44:23;102269.09;;;4.07;79.16
39177;BME280;24904;52.208;21.192;2023-02-14T09:49:32;102274.60;;;4.17;79.23
39177;BME280;24904;52.208;21.192;2023-02-14T09:54:41;102276.38;;;4.13;78.89
39177;BME280;24904;52.208;21.192;2023-02-14T09:59:51;102269.33;;;4.11;79.00
39177;BME280;24904;52.208;21.192;2023-02-14T10:05:02;102264.80;;;4.11;79.04
39177;BME280;24904;52.208;21.192;2023-02-14T10:10:15;102274.05;;;4.12;79.18
39177;BME280;24904;52.208;21.192;2023-02-14T10:15:27;102273.32;;;4.07;79.06
39177;BME280;24904;52.208;21.192;2023-02-14T10:20:36;102270.34;;;4.12;79.38
39177;BME280;24904;52.208;21.192;2023-02-14T10:25:46;102265.42;;;4.23;78.97
39177;BME280;24904;52.208;21.192;2023-02-14T10:31:00;102270.96;;;4.22;78.80
39177;BME280;24904;52.208;21.192;2023-02-14T10:36:16;102265.67;;;4.30;78.90
39177;BME280;24904;52.208;21.192;2023-02-14T10:41:30;102267.81;;;4.28;78.16
39177;BME280;24904;52.208;21.192;2023-02-14T10:46:41;102274.48;;;4.24;78.74
39177;BME280;24904;52.208;21.192;2023-02-14T10:51:54;102274.23;;;4.22;78.73
39177;BME280;24904;52.208;21.192;2023-02-14T10:57:03;102272.27;;;4.28;78.91
39177;BME280;24904;52.208;21.192;2023-02-14T11:02:14;102274.52;;;4.35;78.81
39177;BME280;24904;52.208;21.192;2023-02-14T11:07:21;102270.63;;;4.30;78.64
39177;BME280;24904;52.208;21.192;2023-02-14T11:12:38;102265.27;;;4.32;78.76
39177;BME280;24904;52.208;21.192;2023-02-14T11:17:43;102265.13;;;4.41;78.64
39177;BME280;24904;52.208;21.192;2023-02-14T11:22:49;102265.77;;;4.45;78.79
39177;BME280;24904;52.208;21.192;2023-02-14T11:27:58;102262.60;;;4.48;78.68
39177;BME280;24904;52.208;21.192;2023-02-14T11:33:04;102264.96;;;4.57;78.58
39177;BME280;24904;52.208;21.192;2023-02-14T11:38:28;102268.14;;;4.64;78.48
39177;BME280;24904;52.208;21.192;2023-02-14T11:43:37;102264.33;;;4.59;78.31
39177;BME280;24904;52.208;21.192;2023-02-14T11:48:57;102257.16;;;4.58;78.19
39177;BME280;24904;52.208;21.192;2023-02-14T11:54:01;102248.55;;;4.65;77.97
39177;BME280;24904;52.208;21.192;2023-02-14T11:59:10;102242.27;;;4.71;78.23
39177;BME280;24904;52.208;21.192;2023-02-14T12:04:20;102237.30;;;4.72;77.73
39177;BME280;24904;52.208;21.192;2023-02-14T12:09:28;102240.16;;;4.74;77.67
39177;BME280;24904;52.208;21.192;2023-02-14T12:14:35;102234.55;;;4.79;77.99
39177;BME280;24904;52.208;21.192;2023-02-14T12:19:43;102230.39;;;4.89;78.07
39177;BME280;24904;52.208;21.192;2023-02-14T12:24:56;102228.45;;;4.88;77.55
39177;BME280;24904;52.208;21.192;2023-02-14T12:30:08;102224.33;;;4.83;77.57
39177;BME280;24904;52.208;21.192;2023-02-14T12:35:20;102224.11;;;4.86;77.57
39177;BME280;24904;52.208;21.192;2023-02-14T12:40:33;102221.84;;;4.90;77.74
39177;BME280;24904;52.208;21.192;2023-02-14T12:46:06;102218.05;;;4.93;77.33
39177;BME280;24904;52.208;21.192;2023-02-14T12:51:22;102218.42;;;5.06;77.70
39177;BME280;24904;52.208;21.192;2023-02-14T12:56:41;102215.02;;;5.15;77.44
39177;BME280;24904;52.208;21.192;2023-02-14T13:07:34;102212.70;;;5.14;77.01
39177;BME280;24904;52.208;21.192;2023-02-14T13:12:48;102214.90;;;5.13;76.97
39177;BME280;24904;52.208;21.192;2023-02-14T13:17:58;102214.13;;;5.22;76.89
39177;BME280;24904;52.208;21.192;2023-02-14T13:23:08;102207.04;;;5.28;76.87
39177;BME280;24904;52.208;21.192;2023-02-14T13:28:16;102211.59;;;5.30;76.75
39177;BME280;24904;52.208;21.192;2023-02-14T13:33:29;102211.71;;;5.29;76.69
39177;BME280;24904;52.208;21.192;2023-02-14T13:38:39;102222.20;;;5.28;76.60
39177;BME280;24904;52.208;21.192;2023-02-14T13:43:51;102219.70;;;5.27;76.54
39177;BME280;24904;52.208;21.192;2023-02-14T13:49:00;102216.11;;;5.34;76.75
39177;BME280;24904;52.208;21.192;2023-02-14T13:54:21;102213.27;;;5.42;76.75
39177;BME280;24904;52.208;21.192;2023-02-14T13:59:33;102211.21;;;5.44;76.48
39177;BME280;24904;52.208;21.192;2023-02-14T14:04:39;102210.31;;;5.46;76.48
39177;BME280;24904;52.208;21.192;2023-02-14T14:09:58;102208.48;;;5.45;76.38
39177;BME280;24904;52.208;21.192;2023-02-14T14:15:14;102205.23;;;5.43;76.19
39177;BME280;24904;52.208;21.192;2023-02-14T14:20:43;102199.73;;;5.43;76.33
39177;BME280;24904;52.208;21.192;2023-02-14T14:25:50;102200.79;;;5.45;76.12
39177;BME280;24904;52.208;21.192;2023-02-14T14:30:56;102201.55;;;5.42;76.16
39177;BME280;24904;52.208;21.192;2023-02-14T14:36:02;102206.50;;;5.50;76.42
39177;BME280;24904;52.208;21.192;2023-02-14T14:41:08;102210.90;;;5.51;76.23
39177;BME280;24904;52.208;21.192;2023-02-14T14:46:14;102213.90;;;5.51;76.04
39177;BME280;24904;52.208;21.192;2023-02-14T14:51:23;102215.78;;;5.52;76.08
39177;BME280;24904;52.208;21.192;2023-02-14T14:56:33;102214.95;;;5.54;76.21
39177;BME280;24904;52.208;21.192;2023-02-14T15:01:40;102213.13;;;5.55;76.22
39177;BME280;24904;52.208;21.192;2023-02-14T15:06:47;102211.10;;;5.56;76.01
39177;BME280;24904;52.208;21.192;2023-02-14T15:11:53;102209.02;;;5.56;76.39
39177;BME280;24904;52.208;21.192;2023-02-14T15:17:19;102211.08;;;5.59;76.38
39177;BME280;24904;52.208;21.192;2023-02-14T15:22:28;102209.94;;;5.59;76.31
39177;BME280;24904;52.208;21.192;2023-02-14T15:27:33;102216.69;;;5.60;76.35
39177;BME280;24904;52.208;21.192;2023-02-14T15:39:49;102217.27;;;5.75;76.53
39177;BME280;24904;52.208;21.192;2023-02-14T15:45:20;102215.49;;;5.77;76.35
39177;BME280;24904;52.208;21.192;2023-02-14T15:50:27;102218.05;;;5.78;76.23
39177;BME280;24904;52.208;21.192;2023-02-14T15:55:34;102216.17;;;5.82;76.40
39177;BME280;24904;52.208;21.192;2023-02-14T16:00:42;102217.57;;;5.83;76.55
39177;BME280;24904;52.208;21.192;2023-02-14T16:05:49;102225.56;;;5.81;76.36
39177;BME280;24904;52.208;21.192;2023-02-14T16:11:01;102231.31;;;5.82;76.51
39177;BME280;24904;52.208;21.192;2023-02-14T16:16:08;102238.59;;;5.79;76.52
39177;BME280;24904;52.208;21.192;2023-02-14T16:21:19;102243.55;;;5.79;76.38
39177;BME280;24904;52.208;21.192;2023-02-14T16:26:28;102248.13;;;5.75;76.64
39177;BME280;24904;52.208;21.192;2023-02-14T16:31:34;102249.44;;;5.64;76.52
39177;BME280;24904;52.208;21.192;2023-02-14T16:36:43;102253.69;;;5.53;76.68
39177;BME280;24904;52.208;21.192;2023-02-14T16:41:49;102257.73;;;5.48;76.94
39177;BME280;24904;52.208;21.192;2023-02-14T16:46:56;102262.70;;;5.45;76.93
39177;BME280;24904;52.208;21.192;2023-02-14T16:55:14;102270.02;;;5.31;76.83
39177;BME280;24904;52.208;21.192;2023-02-14T17:00:19;102269.08;;;5.21;76.99
39177;BME280;24904;52.208;21.192;2023-02-14T17:05:23;102269.30;;;5.12;77.23
39177;BME280;24904;52.208;21.192;2023-02-14T17:10:26;102271.80;;;5.10;77.38
39177;BME280;24904;52.208;21.192;2023-02-14T17:15:31;102274.99;;;5.01;77.48
39177;BME280;24904;52.208;21.192;2023-02-14T17:20:36;102280.19;;;4.96;77.64
39177;BME280;24904;52.208;21.192;2023-02-14T17:25:40;102284.79;;;4.94;77.76
39177;BME280;24904;52.208;21.192;2023-02-14T17:30:43;102288.04;;;4.90;77.59
39177;BME280;24904;52.208;21.192;2023-02-14T17:35:46;102291.76;;;4.87;77.86
39177;BME280;24904;52.208;21.192;2023-02-14T17:40:50;102294.48;;;4.88;78.01
39177;BME280;24904;52.208;21.192;2023-02-14T17:45:53;102291.57;;;4.82;78.06
39177;BME280;24904;52.208;21.192;2023-02-14T17:51:03;102294.36;;;4.81;78.10
39177;BME280;24904;52.208;21.192;2023-02-14T17:56:08;102293.45;;;4.79;78.15
39177;BME280;24904;52.208;21.192;2023-02-14T18:01:12;102293.60;;;4.74;78.28
39177;BME280;24904;52.208;21.192;2023-02-14T18:06:16;102291.69;;;4.66;78.53
39177;BME280;24904;52.208;21.192;2023-02-14T18:11:21;102291.61;;;4.62;78.71
39177;BME280;24904;52.208;21.192;2023-02-14T18:16:25;102291.91;;;4.55;78.61
39177;BME280;24904;52.208;21.192;2023-02-14T18:21:31;102291.38;;;4.54;78.73
39177;BME280;24904;52.208;21.192;2023-02-14T18:26:36;102288.04;;;4.50;78.91
39177;BME280;24904;52.208;21.192;2023-02-14T18:31:41;102290.82;;;4.51;78.71
39177;BME280;24904;52.208;21.192;2023-02-14T18:36:44;102288.70;;;4.49;78.99
39177;BME280;24904;52.208;21.192;2023-02-14T18:41:48;102284.23;;;4.50;78.97
39177;BME280;24904;52.208;21.192;2023-02-14T18:46:51;102282.41;;;4.46;78.79
39177;BME280;24904;52.208;21.192;2023-02-14T18:51:54;102280.30;;;4.41;78.82
39177;BME280;24904;52.208;21.192;2023-02-14T18:56:59;102279.24;;;4.38;78.76
39177;BME280;24904;52.208;21.192;2023-02-14T19:02:02;102282.17;;;4.39;78.90
39177;BME280;24904;52.208;21.192;2023-02-14T19:07:05;102285.18;;;4.43;78.81
39177;BME280;24904;52.208;21.192;2023-02-14T19:12:09;102285.03;;;4.41;78.99
39177;BME280;24904;52.208;21.192;2023-02-14T19:17:12;102276.81;;;4.36;78.98
39177;BME280;24904;52.208;21.192;2023-02-14T19:22:15;102276.67;;;4.28;78.87
39177;BME280;24904;52.208;21.192;2023-02-14T19:27:18;102281.63;;;4.22;79.06
39177;BME280;24904;52.208;21.192;2023-02-14T19:32:22;102283.16;;;4.15;79.23
39177;BME280;24904;52.208;21.192;2023-02-14T19:37:25;102289.83;;;4.16;79.13
39177;BME280;24904;52.208;21.192;2023-02-14T19:42:28;102291.98;;;4.13;79.24
39177;BME280;24904;52.208;21.192;2023-02-14T19:47:31;102296.52;;;4.22;79.27
39177;BME280;24904;52.208;21.192;2023-02-14T19:52:34;102293.27;;;4.27;79.13
39177;BME280;24904;52.208;21.192;2023-02-14T19:57:43;102299.89;;;4.23;79.02
39177;BME280;24904;52.208;21.192;2023-02-14T20:02:48;102302.51;;;4.21;78.88
39177;BME280;24904;52.208;21.192;2023-02-14T20:07:51;102297.48;;;4.16;78.95
39177;BME280;24904;52.208;21.192;2023-02-14T20:13:01;102299.64;;;4.19;78.87
39177;BME280;24904;52.208;21.192;2023-02-14T20:18:05;102300.00;;;4.22;78.68
39177;BME280;24904;52.208;21.192;2023-02-14T20:26:45;102296.08;;;4.22;78.28
39177;BME280;24904;52.208;21.192;2023-02-14T20:31:58;102291.66;;;4.12;78.28
39177;BME280;24904;52.208;21.192;2023-02-14T20:37:06;102290.05;;;4.16;78.72
39177;BME280;24904;52.208;21.192;2023-02-14T20:42:13;102294.48;;;4.07;77.78
39177;BME280;24904;52.208;21.192;2023-02-14T20:47:19;102292.35;;;3.95;77.50
39177;BME280;24904;52.208;21.192;2023-02-14T20:52:29;102295.88;;;3.80;77.18
39177;BME280;24904;52.208;21.192;2023-02-14T20:57:34;102297.02;;;3.65;77.23
39177;BME280;24904;52.208;21.192;2023-02-14T21:02:41;102295.45;;;3.57;77.71
39177;BME280;24904;52.208;21.192;2023-02-14T21:07:46;102299.13;;;3.49;77.66
39177;BME280;24904;52.208;21.192;2023-02-14T21:12:51;102298.44;;;3.46;77.63
39177;BME280;24904;52.208;21.192;2023-02-14T21:17:57;102307.44;;;3.38;77.72
39177;BME280;24904;52.208;21.192;2023-02-14T21:23:02;102307.11;;;3.29;77.55
39177;BME280;24904;52.208;21.192;2023-02-14T21:28:07;102308.83;;;3.21;77.66
39177;BME280;24904;52.208;21.192;2023-02-14T21:33:12;102311.27;;;3.14;77.47
39177;BME280;24904;52.208;21.192;2023-02-14T21:38:18;102310.52;;;3.11;77.81
39177;BME280;24904;52.208;21.192;2023-02-14T21:43:27;102311.16;;;3.10;77.74
39177;BME280;24904;52.208;21.192;2023-02-14T21:48:32;102311.38;;;3.09;78.07
39177;BME280;24904;52.208;21.192;2023-02-14T21:53:55;102306.05;;;3.15;78.33
39177;BME280;24904;52.208;21.192;2023-02-14T21:59:05;102303.81;;;3.26;79.55
39177;BME280;24904;52.208;21.192;2023-02-14T22:04:13;102305.29;;;3.44;80.16
39177;BME280;24904;52.208;21.192;2023-02-14T22:09:21;102306.46;;;3.59;80.02
39177;BME280;24904;52.208;21.192;2023-02-14T22:14:26;102301.69;;;3.67;80.02
39177;BME280;24904;52.208;21.192;2023-02-14T22:19:32;102304.71;;;3.66;80.45
39177;BME280;24904;52.208;21.192;2023-02-14T22:24:39;102298.08;;;3.77;80.39
39177;BME280;24904;52.208;21.192;2023-02-14T22:29:44;102299.96;;;3.86;80.63
39177;BME280;24904;52.208;21.192;2023-02-14T22:34:49;102297.36;;;3.91;80.47
39177;BME280;24904;52.208;21.192;2023-02-14T22:39:55;102294.91;;;3.93;80.61
39177;BME280;24904;52.208;21.192;2023-02-14T22:45:00;102295.24;;;4.00;80.61
39177;BME280;24904;52.208;21.192;2023-02-14T22:50:16;102299.05;;;4.00;80.42
39177;BME280;24904;52.208;21.192;2023-02-14T22:55:21;102299.01;;;4.05;80.59
39177;BME280;24904;52.208;21.192;2023-02-14T23:00:26;102297.14;;;4.08;80.38
39177;BME280;24904;52.208;21.192;2023-02-14T23:05:31;102297.09;;;4.08;80.63
39177;BME280;24904;52.208;21.192;2023-02-14T23:10:36;102292.73;;;4.07;80.65
39177;BME280;24904;52.208;21.192;2023-02-14T23:15:42;102291.73;;;4.10;80.47
39177;BME280;24904;52.208;21.192;2023-02-14T23:21:13;102289.71;;;4.04;80.59
39177;BME280;24904;52.208;21.192;2023-02-14T23:26:36;102284.16;;;4.04;80.71
39177;BME280;24904;52.208;21.192;2023-02-14T23:31:41;102283.96;;;4.03;80.79
39177;BME280;24904;52.208;21.192;2023-02-14T23:36:46;102284.90;;;4.07;80.60
39177;BME280;24904;52.208;21.192;2023-02-14T23:41:52;102285.71;;;4.10;80.64
39177;BME280;24904;52.208;21.192;2023-02-14T23:47:00;102283.65;;;4.06;80.83
39177;BME280;24904;52.208;21.192;2023-02-14T23:52:08;102286.05;;;4.13;80.67
39177;BME280;24904;52.208;21.192;2023-02-14T23:57:14;102287.06;;;4.15;80.42
